Time;durP1;ratioP1;P1;durP2;ratioP2;P2;SDS_P1;SDS_P2;PMS_P1;PMS_P2;Temp;Humidity;BMP_temperature;BMP_pressure;BME280_temperature;BME280_humidity;BME280_pressure;Samples;Min_cycle;Max_cycle;Signal;HPM_P1;HPM_P2
2022/05/14 00:00:48;;;;;;;547.03;522.92;;;13.80;99.90;;;;;;5052666;28;20609;-76
2022/05/14 00:03:14;;;;;;;544.92;520.88;;;13.80;99.90;;;;;;5044159;28;20192;-76
2022/05/14 00:05:39;;;;;;;564.85;539.58;;;13.70;99.90;;;;;;5033942;28;20265;-76
2022/05/14 00:08:05;;;;;;;572.85;547.03;;;13.80;99.90;;;;;;5035625;28;20225;-76
2022/05/14 00:10:32;;;;;;;585.63;558.95;;;13.70;99.90;;;;;;5045977;28;20190;-76
2022/05/14 00:13:04;;;;;;;575.67;549.22;;;13.70;99.90;;;;;;5027447;28;20683;-76
2022/05/14 00:15:36;;;;;;;578.78;552.17;;;13.70;99.90;;;;;;5040965;28;20201;-76
2022/05/14 00:18:04;;;;;;;568.88;543.38;;;13.70;99.90;;;;;;5034025;28;20198;-75
2022/05/14 00:20:30;;;;;;;576.30;550.22;;;13.70;99.90;;;;;;5033997;28;20190;-75
2022/05/14 00:22:55;;;;;;;561.63;536.35;;;13.50;99.90;;;;;;5037241;28;20213;-76
2022/05/14 00:25:21;;;;;;;558.53;533.47;;;13.50;99.90;;;;;;5033684;28;20563;-76
2022/05/14 00:27:48;;;;;;;568.10;542.15;;;13.50;99.90;;;;;;5035426;28;20186;-76
2022/05/14 00:30:15;;;;;;;575.95;549.45;;;13.60;99.90;;;;;;5043652;28;20666;-76
2022/05/14 00:32:41;;;;;;;595.25;567.45;;;13.60;99.90;;;;;;5052311;28;20226;-76
2022/05/14 00:35:09;;;;;;;583.85;556.92;;;13.50;99.90;;;;;;5041912;28;20193;-76
2022/05/14 00:37:36;;;;;;;588.17;561.28;;;13.50;99.90;;;;;;5034619;28;20192;-75
2022/05/14 00:40:07;;;;;;;572.70;546.55;;;13.40;99.90;;;;;;5035173;28;20187;-76
2022/05/14 00:42:33;;;;;;;556.35;531.30;;;13.30;99.90;;;;;;5034023;28;20182;-76
2022/05/14 00:44:59;;;;;;;490.90;469.27;;;13.20;99.90;;;;;;5033656;28;20255;-76
2022/05/14 00:47:29;;;;;;;455.20;435.40;;;13.20;99.90;;;;;;5045277;28;20190;-76
2022/05/14 00:49:54;;;;;;;459.75;440.00;;;13.20;99.90;;;;;;5038284;28;20713;-76
2022/05/14 00:52:22;;;;;;;492.27;470.33;;;13.30;99.90;;;;;;5034341;28;20186;-76
2022/05/14 00:55:04;;;;;;;478.10;456.95;;;13.30;99.90;;;;;;5042868;28;20183;-76
2022/05/14 00:57:38;;;;;;;535.78;511.70;;;13.20;99.90;;;;;;5033132;28;20190;-76
2022/05/14 01:00:12;;;;;;;513.45;490.27;;;13.10;99.90;;;;;;5035077;28;20256;-76
2022/05/14 01:02:38;;;;;;;491.55;469.83;;;13.00;99.90;;;;;;5042687;28;20187;-76
2022/05/14 01:05:05;;;;;;;417.10;399.13;;;13.10;99.90;;;;;;5050472;28;20186;-76
2022/05/14 01:07:32;;;;;;;405.55;388.02;;;13.00;99.90;;;;;;5035713;28;20191;-76
2022/05/14 01:10:01;;;;;;;430.98;411.98;;;13.00;99.90;;;;;;5035694;28;20181;-76
2022/05/14 01:12:29;;;;;;;487.30;465.55;;;13.10;99.90;;;;;;5034431;28;20628;-76
2022/05/14 01:15:05;;;;;;;473.73;452.90;;;13.10;99.90;;;;;;5050295;28;20627;-76
2022/05/14 01:17:31;;;;;;;521.28;497.98;;;13.00;99.90;;;;;;5048752;28;20204;-76
2022/05/14 01:19:57;;;;;;;540.22;515.70;;;13.10;99.90;;;;;;5020796;28;20670;-75
2022/05/14 01:23:09;;;;;;;592.78;565.15;;;13.20;99.90;;;;;;5035353;28;20231;-76
2022/05/14 01:28:34;;;;;;;646.42;614.67;;;13.20;99.90;;;;;;5046368;28;20186;-75
2022/05/14 01:31:01;;;;;;;565.85;538.88;;;13.10;99.90;;;;;;5047906;28;20193;-76
2022/05/14 01:33:29;;;;;;;497.90;474.73;;;13.00;99.90;;;;;;5032159;28;20577;-76
2022/05/14 01:35:55;;;;;;;479.88;458.15;;;12.90;99.90;;;;;;5033942;28;20206;-76
2022/05/14 01:38:22;;;;;;;472.10;450.23;;;12.90;99.90;;;;;;5033855;28;20229;-76
2022/05/14 01:40:49;;;;;;;477.52;455.60;;;12.80;99.90;;;;;;5033866;28;20179;-76
2022/05/14 01:43:15;;;;;;;438.88;419.13;;;13.00;99.90;;;;;;5046951;28;20190;-76
2022/05/14 01:45:41;;;;;;;426.70;406.98;;;13.00;99.90;;;;;;5037432;28;20190;-76
2022/05/14 01:48:07;;;;;;;428.88;409.33;;;12.90;99.90;;;;;;5044522;28;20198;-76
2022/05/14 01:50:33;;;;;;;428.13;409.02;;;13.00;99.90;;;;;;5045487;28;20598;-75
2022/05/14 01:52:59;;;;;;;420.13;401.13;;;13.00;99.90;;;;;;5050276;28;20274;-76
2022/05/14 01:55:25;;;;;;;484.25;461.00;;;12.90;99.90;;;;;;5053310;28;20185;-75
2022/05/14 01:57:51;;;;;;;523.33;497.25;;;12.80;99.90;;;;;;5034726;28;20636;-75
2022/05/14 02:00:18;;;;;;;570.03;539.97;;;12.80;99.90;;;;;;5031975;28;20230;-75
2022/05/14 02:02:43;;;;;;;584.47;552.63;;;12.70;99.90;;;;;;5046851;28;20697;-74
2022/05/14 02:05:09;;;;;;;644.38;607.75;;;12.50;99.90;;;;;;5016880;28;20321;-75
2022/05/14 02:07:35;;;;;;;675.37;635.80;;;12.50;99.90;;;;;;5033413;28;20190;-75
2022/05/14 02:10:00;;;;;;;787.78;738.55;;;12.50;99.90;;;;;;5031916;28;20233;-75
2022/05/14 02:12:26;;;;;;;788.17;739.00;;;12.50;99.90;;;;;;5033032;28;20183;-74
2022/05/14 02:14:52;;;;;;;854.20;797.23;;;12.50;99.90;;;;;;5032305;28;20183;-75
2022/05/14 02:17:18;;;;;;;814.67;761.67;;;12.50;99.90;;;;;;5032376;28;20596;-75
2022/05/14 02:19:43;;;;;;;856.80;799.10;;;12.50;99.90;;;;;;5031765;28;20198;-75
2022/05/14 02:22:09;;;;;;;848.40;792.47;;;12.50;99.90;;;;;;5048030;28;20218;-74
2022/05/14 02:24:37;;;;;;;830.38;776.42;;;12.40;99.90;;;;;;5049894;28;20193;-74
2022/05/14 02:27:04;;;;;;;829.78;776.25;;;12.40;99.90;;;;;;5032107;28;20248;-75
2022/05/14 02:29:50;;;;;;;848.45;792.40;;;12.40;99.90;;;;;;5037866;28;20638;-75
2022/05/14 02:32:16;;;;;;;773.67;725.22;;;12.40;99.90;;;;;;5043383;28;20273;-75
2022/05/14 02:34:42;;;;;;;800.03;748.65;;;12.40;99.90;;;;;;5039133;28;20218;-75
2022/05/14 02:37:08;;;;;;;855.97;800.10;;;12.30;99.90;;;;;;5031961;28;20713;-77
2022/05/14 02:39:33;;;;;;;824.72;771.85;;;12.30;99.90;;;;;;5015849;28;20644;-75
2022/05/14 02:41:59;;;;;;;785.60;736.20;;;12.30;99.90;;;;;;5015848;28;20186;-75
2022/05/14 02:44:25;;;;;;;804.83;754.03;;;12.30;99.90;;;;;;5049215;28;20678;-75
2022/05/14 02:46:50;;;;;;;814.20;762.23;;;12.30;99.90;;;;;;5030856;28;20218;-75
2022/05/14 02:49:16;;;;;;;840.10;785.03;;;12.30;99.90;;;;;;5039031;28;20553;-75
2022/05/14 02:51:41;;;;;;;842.53;788.13;;;12.30;99.90;;;;;;5031999;28;20186;-75
2022/05/14 02:54:08;;;;;;;817.45;764.88;;;12.30;99.90;;;;;;5033166;28;20221;-75
2022/05/14 02:56:33;;;;;;;798.05;748.13;;;12.20;99.90;;;;;;5037120;28;20182;-75
2022/05/14 02:59:08;;;;;;;806.13;755.22;;;12.20;99.90;;;;;;5035536;28;20550;-75
2022/05/14 03:01:47;;;;;;;767.25;720.58;;;12.10;99.90;;;;;;5029098;28;20319;-76
2022/05/14 03:04:14;;;;;;;742.23;697.00;;;12.10;99.90;;;;;;5041400;28;20185;-76
2022/05/14 03:06:40;;;;;;;778.83;730.37;;;12.10;99.90;;;;;;5036892;28;20217;-76
2022/05/14 03:09:06;;;;;;;744.03;698.17;;;12.00;99.90;;;;;;5037030;28;20210;-76
2022/05/14 03:11:32;;;;;;;759.20;713.07;;;12.00;99.90;;;;;;5036518;28;20198;-76
2022/05/14 03:13:58;;;;;;;747.07;702.33;;;11.90;99.90;;;;;;5035255;28;20214;-76
2022/05/14 03:16:23;;;;;;;750.67;704.83;;;11.90;99.90;;;;;;5068928;28;20232;-75
2022/05/14 03:18:49;;;;;;;762.00;716.00;;;12.00;99.90;;;;;;5035130;28;20569;-75
2022/05/14 03:21:15;;;;;;;768.07;720.63;;;12.00;99.90;;;;;;5067708;28;20289;-75
2022/05/14 03:23:40;;;;;;;782.10;733.60;;;11.90;99.90;;;;;;5037675;28;20281;-75
2022/05/14 03:26:06;;;;;;;783.97;735.97;;;12.00;99.90;;;;;;5052561;28;20186;-75
2022/05/14 03:28:31;;;;;;;731.90;688.53;;;12.00;99.90;;;;;;5054428;28;20546;-75
2022/05/14 03:30:57;;;;;;;761.73;715.57;;;12.00;99.90;;;;;;5036203;28;20187;-75
2022/05/14 03:33:23;;;;;;;797.33;747.47;;;12.10;99.90;;;;;;5049206;28;20222;-76
2022/05/14 03:35:49;;;;;;;819.27;767.10;;;12.00;99.90;;;;;;5044096;28;20269;-75
2022/05/14 03:38:15;;;;;;;803.77;752.77;;;12.00;99.90;;;;;;5036548;28;20298;-76
2022/05/14 03:40:40;;;;;;;834.50;780.43;;;11.90;99.90;;;;;;5046652;28;20194;-75
2022/05/14 03:43:06;;;;;;;821.10;768.30;;;11.90;99.90;;;;;;5035031;28;20253;-75
2022/05/14 03:45:32;;;;;;;798.43;749.27;;;11.90;99.90;;;;;;5041581;28;20594;-75
2022/05/14 03:47:57;;;;;;;790.17;741.23;;;11.80;99.90;;;;;;5047731;28;20194;-76
2022/05/14 03:50:23;;;;;;;774.83;726.93;;;11.70;99.90;;;;;;5055399;28;20190;-75
2022/05/14 03:52:49;;;;;;;794.97;745.53;;;11.80;99.90;;;;;;5047539;28;20214;-75
2022/05/14 03:55:15;;;;;;;809.90;759.20;;;11.70;99.90;;;;;;5019070;28;20193;-75
2022/05/14 03:57:40;;;;;;;787.80;738.23;;;11.60;99.90;;;;;;5034646;28;20559;-75
2022/05/14 04:00:07;;;;;;;790.57;740.37;;;11.60;99.90;;;;;;5034426;28;20199;-75
2022/05/14 04:02:34;;;;;;;817.93;765.13;;;11.70;99.90;;;;;;5035677;28;20179;-75
2022/05/14 04:05:01;;;;;;;897.90;835.97;;;11.80;99.90;;;;;;5033845;28;20256;-75
2022/05/14 04:07:27;;;;;;;901.23;840.27;;;11.80;99.90;;;;;;5057507;28;20185;-76
2022/05/14 04:09:52;;;;;;;895.20;834.43;;;11.80;99.90;;;;;;5062827;28;20191;-76
2022/05/14 04:12:18;;;;;;;877.27;818.10;;;11.80;99.90;;;;;;5034628;28;20217;-75
2022/05/14 04:14:44;;;;;;;893.37;832.50;;;11.70;99.90;;;;;;5043768;28;20216;-76
2022/05/14 04:17:10;;;;;;;911.17;848.43;;;11.70;99.90;;;;;;5053263;28;20204;-75
2022/05/14 04:19:35;;;;;;;892.67;831.87;;;11.80;99.90;;;;;;5034100;28;20540;-76
2022/05/14 04:22:01;;;;;;;878.57;819.30;;;11.80;99.90;;;;;;5034054;28;20194;-76
2022/05/14 04:24:27;;;;;;;860.53;803.67;;;11.80;99.90;;;;;;5035085;28;20202;-75
2022/05/14 04:26:54;;;;;;;863.33;806.50;;;11.80;99.90;;;;;;5067188;28;20191;-76
2022/05/14 04:29:19;;;;;;;854.23;797.47;;;11.90;99.90;;;;;;5033760;28;20202;-75
2022/05/14 04:31:45;;;;;;;859.47;803.00;;;12.00;99.90;;;;;;5043811;28;20194;-75
2022/05/14 04:34:11;;;;;;;863.55;806.50;;;12.00;99.90;;;;;;5042291;28;20210;-75
2022/05/14 04:36:37;;;;;;;819.72;767.33;;;11.90;99.90;;;;;;5035022;28;20197;-75
2022/05/14 04:39:03;;;;;;;821.67;768.73;;;12.00;99.90;;;;;;5033950;28;20550;-75
2022/05/14 04:41:30;;;;;;;831.03;777.40;;;12.00;99.90;;;;;;5033769;28;20545;-75
2022/05/14 04:43:58;;;;;;;775.57;727.73;;;12.10;99.90;;;;;;5035046;28;20197;-75
2022/05/14 04:46:23;;;;;;;772.67;725.72;;;12.10;99.90;;;;;;5034823;28;20657;-75
2022/05/14 04:48:49;;;;;;;719.40;676.13;;;12.10;99.90;;;;;;5034811;28;20196;-75
2022/05/14 04:51:15;;;;;;;771.13;723.47;;;12.20;99.90;;;;;;5054109;28;20186;-75
2022/05/14 04:53:40;;;;;;;799.40;748.90;;;12.20;99.90;;;;;;5045165;28;20209;-75
2022/05/14 04:56:06;;;;;;;768.50;721.05;;;12.30;99.90;;;;;;5042501;28;20198;-75
2022/05/14 04:58:32;;;;;;;732.38;688.83;;;12.40;99.90;;;;;;5033471;28;20194;-75
2022/05/14 05:00:58;;;;;;;758.65;711.85;;;12.50;99.90;;;;;;5044764;28;20255;-75
2022/05/14 05:03:24;;;;;;;725.50;682.08;;;12.50;99.90;;;;;;5041491;28;20656;-75
2022/05/14 05:05:58;;;;;;;735.03;690.92;;;12.50;99.90;;;;;;5046953;28;20186;-76
2022/05/14 05:08:29;;;;;;;661.67;623.33;;;12.60;99.90;;;;;;5034748;28;20186;-75
2022/05/14 05:10:55;;;;;;;707.00;665.25;;;12.60;99.90;;;;;;5033411;28;20183;-76
2022/05/14 05:13:23;;;;;;;707.08;665.88;;;12.60;99.90;;;;;;5034015;28;20345;-76
2022/05/14 05:15:49;;;;;;;677.72;638.67;;;12.60;99.90;;;;;;5044861;28;20193;-76
2022/05/14 05:18:15;;;;;;;675.55;636.13;;;12.70;99.90;;;;;;5044355;28;20269;-77
2022/05/14 05:20:44;;;;;;;717.78;675.38;;;12.70;99.90;;;;;;5034222;28;20252;-76
2022/05/14 05:23:14;;;;;;;709.10;667.38;;;12.80;99.90;;;;;;5034302;28;20186;-76
2022/05/14 05:25:40;;;;;;;680.08;641.20;;;13.00;99.90;;;;;;5034193;28;20183;-76
2022/05/14 05:28:06;;;;;;;594.58;563.40;;;13.30;99.90;;;;;;5034749;28;20593;-76
2022/05/14 05:30:32;;;;;;;529.08;502.23;;;13.60;99.90;;;;;;5032448;28;20241;-75
2022/05/14 05:32:58;;;;;;;447.38;425.98;;;13.80;99.90;;;;;;5049379;28;20206;-75
2022/05/14 05:35:24;;;;;;;431.00;411.13;;;13.70;99.90;;;;;;5030178;28;20187;-76
2022/05/14 05:37:50;;;;;;;413.15;394.50;;;13.70;99.90;;;;;;5032877;28;20264;-77
2022/05/14 05:40:16;;;;;;;409.92;391.55;;;13.70;99.90;;;;;;5035952;28;20589;-76
2022/05/14 05:42:44;;;;;;;422.83;403.65;;;13.70;99.90;;;;;;5050419;28;20182;-77
2022/05/14 05:45:11;;;;;;;446.13;426.13;;;13.70;99.90;;;;;;5040882;28;20836;-77
2022/05/14 05:47:37;;;;;;;435.50;415.77;;;13.60;99.90;;;;;;5043677;28;20190;-76
2022/05/14 05:50:03;;;;;;;487.20;463.52;;;13.50;99.90;;;;;;5066306;28;20336;-77
2022/05/14 05:52:32;;;;;;;489.38;464.77;;;13.60;99.90;;;;;;5031602;28;20186;-77
2022/05/14 05:57:42;;;;;;;521.70;495.50;;;13.60;99.90;;;;;;5033640;28;20213;-76
2022/05/14 06:00:13;;;;;;;534.45;507.77;;;13.60;99.90;;;;;;5073468;28;20692;-76
2022/05/14 06:02:39;;;;;;;540.42;512.63;;;13.60;99.90;;;;;;5033613;28;20666;-77
2022/05/14 06:05:06;;;;;;;580.90;549.67;;;13.70;99.90;;;;;;5038097;28;20278;-76
2022/05/14 06:07:33;;;;;;;598.38;566.33;;;13.70;99.90;;;;;;5032102;28;20178;-76
2022/05/14 06:09:59;;;;;;;630.60;595.67;;;13.70;99.90;;;;;;5041408;28;20189;-77
2022/05/14 06:12:25;;;;;;;594.70;563.00;;;13.90;99.90;;;;;;5032924;28;20209;-77
2022/05/14 06:14:50;;;;;;;595.75;563.38;;;14.10;99.90;;;;;;5041539;28;20242;-77
2022/05/14 06:17:16;;;;;;;578.83;547.65;;;14.20;99.90;;;;;;5038410;28;20190;-77
2022/05/14 06:19:42;;;;;;;586.78;555.72;;;14.20;99.90;;;;;;5030493;28;20219;-77
2022/05/14 06:22:08;;;;;;;587.25;555.50;;;14.40;99.90;;;;;;5032227;28;20186;-77
2022/05/14 06:24:36;;;;;;;601.40;568.47;;;14.40;99.90;;;;;;5033340;28;20194;-76
2022/05/14 06:27:02;;;;;;;568.53;537.92;;;14.30;99.90;;;;;;5034754;28;20249;-76
2022/05/14 06:29:29;;;;;;;580.55;549.40;;;14.40;99.90;;;;;;5047819;28;20644;-76
2022/05/14 06:31:55;;;;;;;575.45;544.60;;;14.40;99.90;;;;;;5032265;28;20650;-77
2022/05/14 06:34:21;;;;;;;602.72;568.97;;;14.50;99.90;;;;;;5031844;28;20211;-76
2022/05/14 06:36:46;;;;;;;565.40;534.80;;;14.40;99.90;;;;;;5031915;28;20186;-76
2022/05/14 06:39:12;;;;;;;566.65;535.92;;;14.50;99.90;;;;;;5031993;28;20198;-76
2022/05/14 06:41:38;;;;;;;589.55;556.83;;;14.50;99.90;;;;;;5032104;28;20282;-76
2022/05/14 06:44:04;;;;;;;604.95;572.05;;;14.80;99.90;;;;;;5015338;28;20194;-77
2022/05/14 06:46:30;;;;;;;650.33;613.20;;;14.90;99.90;;;;;;5040783;28;20292;-77
2022/05/14 06:48:56;;;;;;;636.05;600.17;;;15.10;99.90;;;;;;5040355;28;20187;-81
2022/05/14 06:51:25;;;;;;;684.20;644.20;;;15.30;99.90;;;;;;5032127;28;20186;-79
2022/05/14 06:53:54;;;;;;;674.17;635.03;;;15.40;99.90;;;;;;5032798;28;20225;-79
2022/05/14 06:56:21;;;;;;;703.75;661.72;;;15.30;99.90;;;;;;5038124;28;20188;-76
2022/05/14 06:58:50;;;;;;;660.17;622.40;;;15.40;99.90;;;;;;5045217;28;20691;-77
2022/05/14 07:01:21;;;;;;;606.28;573.38;;;15.40;99.90;;;;;;5044640;28;20256;-78
2022/05/14 07:06:38;;;;;;;622.13;587.70;;;15.70;99.90;;;;;;5031925;28;20200;-76
2022/05/14 07:09:05;;;;;;;589.50;556.95;;;15.70;99.90;;;;;;5048592;28;20278;-75
2022/05/14 07:11:34;;;;;;;614.88;580.65;;;15.90;99.90;;;;;;5023310;28;20628;-78
2022/05/14 07:14:00;;;;;;;550.15;520.30;;;15.90;99.90;;;;;;5052266;28;20210;-77
2022/05/14 07:16:26;;;;;;;571.90;541.40;;;16.00;99.90;;;;;;5032505;28;20197;-81
2022/05/14 07:18:53;;;;;;;549.88;520.03;;;16.20;99.90;;;;;;5050544;28;20273;-76
2022/05/14 07:21:18;;;;;;;430.08;408.75;;;16.40;99.90;;;;;;5072295;28;20233;-76
2022/05/14 07:23:44;;;;;;;355.52;338.98;;;16.80;99.90;;;;;;5032708;28;20195;-74
2022/05/14 07:26:10;;;;;;;396.92;377.73;;;17.70;99.90;;;;;;5032632;28;20214;-76
2022/05/14 07:28:36;;;;;;;468.02;441.50;;;19.30;99.90;;;;;;5051707;28;20186;-77
2022/05/14 07:31:03;;;;;;;1061.13;987.13;;;20.90;99.90;;;;;;5053206;28;20263;-77
2022/05/14 07:33:30;;;;;;;1181.50;999.90;;;22.90;99.90;;;;;;5031406;28;20293;-77
2022/05/14 07:36:01;;;;;;;1240.57;999.90;;;24.30;99.90;;;;;;5048515;28;20186;-78
2022/05/14 07:38:28;;;;;;;1235.43;999.90;;;26.00;99.90;;;;;;5032485;28;20571;-79
2022/05/14 07:40:54;;;;;;;1199.63;999.90;;;27.00;99.90;;;;;;5046668;28;20302;-78
2022/05/14 07:43:26;;;;;;;1108.47;999.90;;;27.90;99.90;;;;;;5039777;28;20328;-76
2022/05/14 07:45:55;;;;;;;1018.90;946.92;;;28.80;99.90;;;;;;5042299;28;20554;-76
2022/05/14 07:48:29;;;;;;;973.15;906.38;;;29.10;99.90;;;;;;5047815;28;20557;-76
2022/05/14 07:50:56;;;;;;;905.60;846.35;;;29.30;99.90;;;;;;5043980;28;20201;-70
2022/05/14 07:53:22;;;;;;;851.50;797.85;;;30.10;99.90;;;;;;5053653;28;20197;-72
2022/05/14 07:55:51;;;;;;;752.85;708.20;;;30.50;99.90;;;;;;5042843;28;20194;-72
2022/05/14 07:58:16;;;;;;;652.85;616.78;;;31.00;99.90;;;;;;5035847;28;20694;-72
2022/05/14 08:00:42;;;;;;;531.38;504.55;;;30.60;99.90;;;;;;5033915;28;20340;-70
2022/05/14 08:03:08;;;;;;;458.58;436.02;;;31.00;99.90;;;;;;5035338;28;20247;-73
2022/05/14 08:05:34;;;;;;;277.50;264.50;;;31.30;99.90;;;;;;5067903;28;20558;-71
2022/05/14 08:08:02;;;;;;;243.82;231.93;;;31.50;99.90;;;;;;5029954;28;20194;-72
2022/05/14 08:10:28;;;;;;;198.52;188.02;;;30.70;99.90;;;;;;5036189;28;20186;-73
2022/05/14 08:12:55;;;;;;;233.65;222.02;;;30.50;99.90;;;;;;5040025;28;20236;-73
2022/05/14 08:15:23;;;;;;;199.90;190.15;;;30.50;99.90;;;;;;5037662;28;20181;-75
2022/05/14 08:17:49;;;;;;;258.98;246.32;;;30.70;99.90;;;;;;5067117;28;20707;-80
2022/05/14 08:20:15;;;;;;;200.57;190.68;;;30.20;99.90;;;;;;5017281;28;20205;-77
2022/05/14 08:25:26;;;;;;;176.40;167.73;;;30.30;99.90;;;;;;5043339;28;20191;-77
2022/05/14 08:27:52;;;;;;;164.77;156.07;;;31.00;99.90;;;;;;5036811;28;20186;-70
2022/05/14 08:30:23;;;;;;;182.30;172.65;;;31.40;99.90;;;;;;5033612;28;20182;-74
2022/05/14 08:32:50;;;;;;;177.48;167.25;;;31.50;99.90;;;;;;5034558;28;20550;-77
2022/05/14 08:35:16;;;;;;;154.85;146.05;;;31.00;99.90;;;;;;5066585;28;20267;-77
2022/05/14 08:37:42;;;;;;;132.93;125.20;;;31.60;99.90;;;;;;5035274;28;20332;-77
2022/05/14 08:40:13;;;;;;;130.43;122.38;;;32.30;99.90;;;;;;5052164;28;20272;-78
2022/05/14 08:42:39;;;;;;;133.65;125.75;;;32.50;99.90;;;;;;5044492;28;20191;-74
2022/05/14 08:45:06;;;;;;;135.10;126.95;;;32.20;99.90;;;;;;5027402;28;20565;-75
2022/05/14 08:47:41;;;;;;;123.47;115.72;;;31.70;99.90;;;;;;5040431;28;20185;-76
2022/05/14 08:50:08;;;;;;;128.60;120.88;;;31.50;99.90;;;;;;5050697;28;20642;-76
2022/05/14 08:52:36;;;;;;;146.05;137.68;;;31.50;99.90;;;;;;5044992;28;20616;-73
2022/05/14 08:55:08;;;;;;;161.15;151.88;;;31.90;99.90;;;;;;5046469;28;20224;-74
2022/05/14 08:57:34;;;;;;;177.63;167.45;;;32.40;99.90;;;;;;5048842;28;20225;-76
2022/05/14 09:00:00;;;;;;;161.93;152.88;;;32.20;99.90;;;;;;5043274;28;20217;-77
2022/05/14 09:02:39;;;;;;;168.52;159.10;;;31.70;99.90;;;;;;5042237;28;20647;-75
2022/05/14 09:05:19;;;;;;;173.60;163.52;;;31.50;99.90;;;;;;5034138;28;20236;-71
2022/05/14 09:07:45;;;;;;;183.05;172.77;;;32.10;99.90;;;;;;5034750;28;20327;-69
2022/05/14 09:10:30;;;;;;;157.32;148.00;;;32.40;99.90;;;;;;5037190;28;20593;-69
2022/05/14 09:13:00;;;;;;;161.30;151.55;;;32.40;99.90;;;;;;5035592;28;20186;-69
2022/05/14 09:15:30;;;;;;;166.43;156.85;;;32.50;99.90;;;;;;5033642;28;20176;-69
2022/05/14 09:18:27;;;;;;;171.95;162.35;;;32.30;99.90;;;;;;5034018;28;20189;-69
2022/05/14 09:20:58;;;;;;;167.25;158.15;;;31.30;99.90;;;;;;5036573;28;20549;-69
2022/05/14 09:23:32;;;;;;;123.60;116.78;;;29.90;99.90;;;;;;5037652;28;20597;-69
2022/05/14 09:26:19;;;;;;;128.35;122.10;;;28.40;99.90;;;;;;5034039;28;20181;-68
2022/05/14 09:28:49;;;;;;;203.63;194.75;;;27.30;99.90;;;;;;5036811;28;20186;-68
2022/05/14 09:31:33;;;;;;;423.80;405.08;;;26.20;99.90;;;;;;5040488;28;20186;-68
2022/05/14 09:34:06;;;;;;;621.25;589.08;;;25.40;99.90;;;;;;5034294;28;20210;-68
2022/05/14 09:36:34;;;;;;;750.03;706.35;;;24.80;99.90;;;;;;5040031;28;20194;-68
2022/05/14 09:39:04;;;;;;;838.15;786.63;;;24.30;99.90;;;;;;5066185;28;20182;-68
2022/05/14 09:41:42;;;;;;;960.38;896.25;;;23.90;99.90;;;;;;5038047;28;20185;-69
2022/05/14 09:44:14;;;;;;;1040.63;966.92;;;23.50;99.90;;;;;;5071267;28;20616;-70
2022/05/14 09:46:43;;;;;;;1079.10;996.33;;;23.30;99.90;;;;;;5037666;28;20187;-68
2022/05/14 09:49:17;;;;;;;1109.50;999.90;;;23.50;99.90;;;;;;5033379;28;20523;-69
2022/05/14 09:52:04;;;;;;;1124.65;999.90;;;23.30;99.90;;;;;;5033819;28;20217;-65
2022/05/14 09:54:45;;;;;;;1130.07;999.90;;;23.40;99.90;;;;;;5033678;28;20198;-69
2022/05/14 09:57:25;;;;;;;1148.78;999.90;;;23.40;99.90;;;;;;5034379;28;20222;-69
2022/05/14 10:00:00;;;;;;;1146.47;999.90;;;23.30;99.90;;;;;;5042797;28;20278;-68
2022/05/14 10:02:31;;;;;;;1144.68;999.90;;;23.30;99.90;;;;;;5038993;28;20188;-68
2022/05/14 10:05:02;;;;;;;1152.53;999.90;;;23.40;99.90;;;;;;5042880;28;20557;-68
2022/05/14 10:08:02;;;;;;;1168.88;999.90;;;23.30;99.90;;;;;;5041923;28;20273;-69
2022/05/14 10:10:59;;;;;;;1169.28;999.90;;;23.10;99.90;;;;;;5032449;28;20324;-69
2022/05/14 10:14:02;;;;;;;1177.00;999.90;;;22.90;99.90;;;;;;5033479;28;20206;-69
2022/05/14 10:16:36;;;;;;;1172.78;999.90;;;22.80;99.90;;;;;;5032537;28;20547;-68
2022/05/14 10:19:28;;;;;;;1182.72;999.90;;;22.90;99.90;;;;;;5031953;28;20706;-68
2022/05/14 10:22:20;;;;;;;1181.43;999.90;;;23.00;99.90;;;;;;5040033;28;20277;-75
2022/05/14 10:28:30;;;;;;;1170.10;999.90;;;23.10;99.90;;;;;;5046334;28;20244;-72
2022/05/14 10:31:13;;;;;;;1175.70;999.90;;;23.10;99.90;;;;;;5063897;28;20652;-75
2022/05/14 10:33:39;;;;;;;1186.03;999.90;;;23.20;99.90;;;;;;5033164;28;20204;-74
2022/05/14 10:36:14;;;;;;;1180.30;999.90;;;23.10;99.90;;;;;;5032731;28;20190;-73
2022/05/14 10:38:50;;;;;;;1181.30;999.90;;;23.00;99.90;;;;;;5033550;28;20563;-72
2022/05/14 10:41:31;;;;;;;1175.85;999.90;;;23.20;99.90;;;;;;5045794;28;20648;-74
2022/05/14 10:44:09;;;;;;;1181.47;999.90;;;22.90;99.90;;;;;;5043353;28;20288;-74
2022/05/14 10:46:38;;;;;;;1184.45;999.90;;;22.90;99.90;;;;;;5065101;28;20546;-74
2022/05/14 10:49:34;;;;;;;1188.97;999.90;;;22.70;99.90;;;;;;5033530;28;20179;-74
2022/05/14 10:52:00;;;;;;;1186.97;999.90;;;22.40;99.90;;;;;;5039659;28;20265;-74
2022/05/14 10:54:26;;;;;;;1189.10;999.90;;;22.50;99.90;;;;;;5032002;28;20206;-73
2022/05/14 10:57:02;;;;;;;1185.70;999.90;;;22.50;99.90;;;;;;5039373;28;20197;-74
2022/05/14 10:59:38;;;;;;;1188.25;999.90;;;22.80;99.90;;;;;;5035308;28;20644;-74
2022/05/14 11:02:04;;;;;;;1190.50;999.90;;;22.70;99.90;;;;;;5064711;28;20187;-74
2022/05/14 11:04:47;;;;;;;1189.18;999.90;;;22.80;99.90;;;;;;5072233;28;20255;-74
2022/05/14 11:07:35;;;;;;;1187.32;999.90;;;22.40;99.90;;;;;;5040043;28;20186;-74
2022/05/14 11:10:29;;;;;;;1189.93;999.90;;;22.10;99.90;;;;;;5031201;28;20281;-74
2022/05/14 11:12:56;;;;;;;1181.95;999.90;;;22.20;99.90;;;;;;5032456;28;20697;-74
2022/05/14 11:15:28;;;;;;;1202.15;999.90;;;22.60;99.90;;;;;;5066416;28;20285;-74
2022/05/14 11:18:07;;;;;;;1194.45;999.90;;;22.70;99.90;;;;;;5070211;28;20218;-74
2022/05/14 11:20:33;;;;;;;1192.20;999.90;;;22.70;99.90;;;;;;5041188;28;20194;-74
2022/05/14 11:23:13;;;;;;;1188.90;999.90;;;22.70;99.90;;;;;;5032812;28;20186;-74
2022/05/14 11:25:39;;;;;;;1188.75;999.90;;;22.80;99.90;;;;;;5051762;28;20686;-74
2022/05/14 11:28:28;;;;;;;1184.05;999.90;;;22.90;99.90;;;;;;5040023;28;20204;-74
2022/05/14 11:31:08;;;;;;;1185.82;999.90;;;23.20;99.90;;;;;;5055559;28;20186;-73
2022/05/14 11:33:34;;;;;;;1186.05;999.90;;;23.30;99.90;;;;;;5050322;28;20661;-74
2022/05/14 11:36:04;;;;;;;1191.40;999.90;;;23.40;99.90;;;;;;5018975;28;20206;-74
2022/05/14 11:38:36;;;;;;;1188.80;999.90;;;23.30;99.90;;;;;;5035293;28;20185;-72
2022/05/14 11:41:03;;;;;;;1187.10;999.90;;;23.10;99.90;;;;;;5036452;28;20196;-73
2022/05/14 11:43:32;;;;;;;1192.38;999.90;;;23.10;99.90;;;;;;5048648;28;20216;-74
2022/05/14 11:46:23;;;;;;;1192.45;999.90;;;23.10;99.90;;;;;;5044859;28;20637;-73
2022/05/14 11:48:54;;;;;;;1196.78;999.90;;;23.00;99.90;;;;;;5035972;28;20206;-73
2022/05/14 11:51:20;;;;;;;1183.53;999.90;;;22.90;99.90;;;;;;5050041;28;20225;-74
2022/05/14 11:53:53;;;;;;;1187.47;999.90;;;22.80;99.90;;;;;;5049687;28;21013;-73
2022/05/14 11:56:37;;;;;;;1183.22;999.90;;;23.00;99.90;;;;;;5067812;28;20178;-75
2022/05/14 11:59:24;;;;;;;1189.10;999.90;;;23.20;99.90;;;;;;5035224;28;20546;-72
2022/05/14 12:01:52;;;;;;;1184.57;999.90;;;23.20;99.90;;;;;;5046549;28;20233;-73
2022/05/14 12:04:39;;;;;;;1191.15;999.90;;;23.40;99.90;;;;;;5034376;28;20195;-73
2022/05/14 12:07:27;;;;;;;1186.40;999.90;;;23.20;99.90;;;;;;5067880;28;20269;-74
2022/05/14 12:10:28;;;;;;;1178.93;999.90;;;23.10;99.90;;;;;;5035689;28;20197;-73
2022/05/14 12:13:13;;;;;;;1175.57;999.90;;;22.80;99.90;;;;;;5034297;28;20182;-74
2022/05/14 12:15:52;;;;;;;1183.20;999.90;;;22.60;99.90;;;;;;5067540;28;20201;-74
2022/05/14 12:18:19;;;;;;;1181.20;999.90;;;22.60;99.90;;;;;;5050630;28;20204;-73
2022/05/14 12:21:11;;;;;;;1178.55;999.90;;;22.80;99.90;;;;;;5017770;28;20224;-73
2022/05/14 12:23:45;;;;;;;1189.40;999.90;;;23.10;99.90;;;;;;5034295;28;20187;-73
2022/05/14 12:26:23;;;;;;;1190.93;999.90;;;23.30;99.90;;;;;;5017027;28;20224;-74
2022/05/14 12:28:50;;;;;;;1192.75;999.90;;;23.40;99.90;;;;;;5033945;28;20182;-73
2022/05/14 12:34:20;;;;;;;1183.90;999.90;;;22.90;99.90;;;;;;5040818;28;20771;-73
2022/05/14 12:36:52;;;;;;;1177.88;999.90;;;22.80;99.90;;;;;;5034722;28;20201;-73